createdAt,value
2017-10-05T00:01:23.857Z,75.40
2017-10-05T00:03:51.320Z,75.09
2017-10-05T00:06:18.817Z,75.18
2017-10-05T00:08:46.284Z,75.14
2017-10-05T00:11:13.842Z,75.13
2017-10-05T00:13:41.299Z,75.59
2017-10-05T00:16:08.800Z,75.64
2017-10-05T00:18:36.317Z,75.63
2017-10-05T00:21:03.917Z,75.52
2017-10-05T00:23:31.962Z,75.67
2017-10-05T00:25:59.443Z,75.34
2017-10-05T00:28:26.929Z,75.15
2017-10-05T00:30:54.394Z,75.00
2017-10-05T00:33:22.162Z,74.98
2017-10-05T00:35:49.612Z,75.29
2017-10-05T00:38:17.117Z,75.13
2017-10-05T00:40:44.595Z,75.14
2017-10-05T00:43:12.097Z,75.22
2017-10-05T00:45:39.649Z,75.28
2017-10-05T00:48:07.148Z,75.38
2017-10-05T00:50:34.640Z,75.64
2017-10-05T00:53:02.136Z,75.62
2017-10-05T00:55:29.598Z,75.46
2017-10-05T00:57:57.075Z,75.56
2017-10-05T01:00:24.568Z,75.39
2017-10-05T01:02:52.086Z,75.56
2017-10-05T01:05:19.595Z,75.27
2017-10-05T01:07:47.048Z,75.15
2017-10-05T01:10:14.549Z,75.46
2017-10-05T01:12:42.012Z,75.33
2017-10-05T01:15:09.530Z,75.32
2017-10-05T01:17:36.981Z,75.71
2017-10-05T01:20:04.637Z,75.93
2017-10-05T01:22:32.101Z,76.26
2017-10-05T01:24:59.568Z,76.51
2017-10-05T01:27:27.045Z,76.39
2017-10-05T01:29:54.510Z,76.08
2017-10-05T01:32:21.999Z,75.92
2017-10-05T01:34:49.453Z,76.01
2017-10-05T01:37:16.936Z,76.41
2017-10-05T01:39:44.393Z,76.48
2017-10-05T01:42:11.988Z,76.26
2017-10-05T01:44:39.436Z,76.31
2017-10-05T01:47:06.908Z,76.32
2017-10-05T01:49:34.396Z,76.57
2017-10-05T01:52:01.868Z,76.47
2017-10-05T01:54:29.349Z,76.60
2017-10-05T01:56:56.804Z,77.10
2017-10-05T01:59:24.294Z,77.08
2017-10-05T02:01:51.813Z,76.99
2017-10-05T02:04:19.285Z,77.20
2017-10-05T02:06:46.742Z,77.26
2017-10-05T02:09:14.230Z,77.35
2017-10-05T02:11:41.686Z,77.17
2017-10-05T02:14:09.152Z,76.99
2017-10-05T02:16:36.622Z,76.76
2017-10-05T02:19:04.070Z,76.80
2017-10-05T02:21:31.557Z,76.69
2017-10-05T02:23:59.006Z,76.81
2017-10-05T02:26:26.496Z,76.69
2017-10-05T02:28:53.942Z,76.67
2017-10-05T02:31:21.422Z,77.05
2017-10-05T02:33:48.896Z,77.34
2017-10-05T02:38:50.229Z,77.44
2017-10-05T02:41:17.711Z,77.41
2017-10-05T02:43:45.191Z,77.32
2017-10-05T02:46:12.689Z,77.42
2017-10-05T02:48:40.193Z,77.32
2017-10-05T02:51:07.649Z,77.35
2017-10-05T02:53:35.179Z,77.47
2017-10-05T02:56:02.630Z,77.76
2017-10-05T02:58:30.118Z,77.80
2017-10-05T03:00:57.585Z,77.43
2017-10-05T03:03:25.254Z,77.33
2017-10-05T03:05:52.725Z,77.22
2017-10-05T03:08:20.173Z,77.20
2017-10-05T03:10:47.653Z,77.30
2017-10-05T03:13:15.113Z,77.54
2017-10-05T03:15:42.591Z,77.52
2017-10-05T03:18:10.057Z,77.47
2017-10-05T03:20:37.549Z,77.56
2017-10-05T03:23:05.006Z,77.52
2017-10-05T03:25:32.478Z,77.64
2017-10-05T03:27:59.950Z,78.05
2017-10-05T03:30:27.425Z,78.32
2017-10-05T03:32:54.922Z,78.42
2017-10-05T03:35:22.380Z,78.31
2017-10-05T03:37:49.871Z,78.05
2017-10-05T03:40:17.328Z,78.08
2017-10-05T03:42:44.824Z,78.21
2017-10-05T03:45:12.285Z,78.16
2017-10-05T03:47:39.777Z,78.18
2017-10-05T03:50:07.244Z,78.01
2017-10-05T03:52:34.744Z,77.91
2017-10-05T03:55:02.209Z,77.91
2017-10-05T03:57:29.706Z,77.79
2017-10-05T03:59:57.197Z,77.66
2017-10-05T04:02:24.658Z,77.74
2017-10-05T04:04:52.957Z,78.01
2017-10-05T04:07:20.409Z,77.86
2017-10-05T04:09:47.900Z,77.89
2017-10-05T04:12:15.361Z,78.03
2017-10-05T04:14:42.846Z,78.32
2017-10-05T04:17:10.319Z,77.95
2017-10-05T04:19:37.798Z,77.97
2017-10-05T04:22:05.301Z,78.01
2017-10-05T04:24:32.809Z,77.93
2017-10-05T04:27:00.317Z,77.76
2017-10-05T04:29:27.814Z,77.92
2017-10-05T04:31:55.308Z,77.80
2017-10-05T04:34:22.777Z,77.96
2017-10-05T04:36:50.257Z,78.15
2017-10-05T04:39:17.726Z,78.09
2017-10-05T04:41:45.215Z,78.09
2017-10-05T04:44:12.724Z,78.06
2017-10-05T04:46:40.229Z,78.15
2017-10-05T04:49:07.733Z,77.92
2017-10-05T04:51:35.193Z,77.95
2017-10-05T04:54:02.709Z,78.09
2017-10-05T04:56:30.160Z,78.05
2017-10-05T04:58:57.656Z,77.99
2017-10-05T05:01:25.124Z,78.04
2017-10-05T05:03:52.652Z,78.12
2017-10-05T05:06:20.100Z,77.91
2017-10-05T05:08:47.595Z,77.85
2017-10-05T05:11:15.095Z,77.84
2017-10-05T05:13:42.582Z,77.86
2017-10-05T05:16:10.075Z,77.94
2017-10-05T05:18:37.554Z,78.04
2017-10-05T05:21:05.081Z,77.96
2017-10-05T05:23:33.628Z,77.92
2017-10-05T05:26:02.093Z,77.91
2017-10-05T05:28:30.501Z,77.95
2017-10-05T05:30:57.991Z,77.94
2017-10-05T05:33:25.464Z,77.91
2017-10-05T05:35:52.925Z,77.66
2017-10-05T05:38:21.089Z,77.27
2017-10-05T05:40:48.558Z,77.32
2017-10-05T05:43:16.038Z,77.41
2017-10-05T05:45:43.489Z,77.50
2017-10-05T05:48:11.008Z,77.21
2017-10-05T05:50:38.469Z,77.22
2017-10-05T05:53:06.077Z,77.30
2017-10-05T05:55:33.577Z,77.25
2017-10-05T05:58:01.040Z,77.22
2017-10-05T06:00:28.605Z,77.25
2017-10-05T06:02:56.135Z,77.21
2017-10-05T06:05:24.148Z,77.04
2017-10-05T06:07:51.616Z,76.97
2017-10-05T06:10:19.133Z,76.33
2017-10-05T06:12:46.599Z,76.63
2017-10-05T06:15:14.116Z,76.42
2017-10-05T06:17:41.571Z,76.18
2017-10-05T06:20:09.093Z,76.07
2017-10-05T06:22:36.553Z,75.64
2017-10-05T06:25:04.934Z,75.62
2017-10-05T06:27:32.400Z,75.33
2017-10-05T06:29:59.897Z,75.17
2017-10-05T06:32:27.374Z,75.28
2017-10-05T06:34:54.981Z,75.27
2017-10-05T06:37:22.449Z,75.14
2017-10-05T06:39:49.913Z,75.01
2017-10-05T06:42:17.409Z,74.54
2017-10-05T06:44:44.874Z,74.27
2017-10-05T06:47:12.356Z,74.51
2017-10-05T06:49:39.816Z,74.17
2017-10-05T06:52:07.353Z,74.06
2017-10-05T06:54:34.815Z,73.66
2017-10-05T06:57:02.398Z,73.17
2017-10-05T06:59:29.895Z,73.26
2017-10-05T07:01:57.364Z,73.08
2017-10-05T07:04:24.915Z,72.40
2017-10-05T07:06:52.369Z,72.59
2017-10-05T07:09:19.872Z,72.43
2017-10-05T07:11:47.361Z,71.94
2017-10-05T07:14:14.895Z,72.01
2017-10-05T07:16:42.361Z,71.56
2017-10-05T07:19:09.865Z,71.17
2017-10-05T07:21:37.337Z,70.89
2017-10-05T07:24:04.917Z,70.22
2017-10-05T07:26:32.377Z,69.64
2017-10-05T07:28:59.857Z,69.79
2017-10-05T07:31:27.358Z,69.68
2017-10-05T07:33:54.823Z,69.36
2017-10-05T07:36:22.340Z,69.49
2017-10-05T07:38:49.812Z,69.40
2017-10-05T07:41:17.346Z,69.81
2017-10-05T07:43:44.806Z,69.82
2017-10-05T07:46:12.321Z,70.04
2017-10-05T07:48:39.791Z,68.85
2017-10-05T07:51:07.673Z,68.99
2017-10-05T07:53:35.137Z,68.84
2017-10-05T07:56:02.609Z,68.68
2017-10-05T07:58:30.131Z,68.35
2017-10-05T08:00:57.589Z,67.98
2017-10-05T08:03:25.105Z,67.67
2017-10-05T08:05:52.572Z,67.55
2017-10-05T08:08:24.014Z,66.89
2017-10-05T08:10:51.490Z,66.68
2017-10-05T08:13:19.001Z,67.03
2017-10-05T08:15:46.493Z,67.17
2017-10-05T08:18:13.974Z,67.10
2017-10-05T08:20:41.465Z,67.47
2017-10-05T08:23:08.964Z,66.82
2017-10-05T08:25:36.481Z,66.78
2017-10-05T08:28:03.971Z,66.94
2017-10-05T08:30:31.733Z,67.03
2017-10-05T08:32:59.262Z,66.78
2017-10-05T08:35:27.013Z,66.32
2017-10-05T08:37:54.529Z,66.23
2017-10-05T08:40:22.061Z,65.48
2017-10-05T08:42:49.547Z,65.71
2017-10-05T08:45:17.018Z,64.06
2017-10-05T08:47:44.507Z,64.50
2017-10-05T08:50:11.990Z,63.88
2017-10-05T08:52:39.492Z,64.18
2017-10-05T08:55:06.985Z,64.22
2017-10-05T08:57:34.463Z,63.77
2017-10-05T09:00:01.941Z,63.48
2017-10-05T09:02:29.461Z,63.10
2017-10-05T09:04:56.999Z,63.19
2017-10-05T09:07:24.496Z,62.62
2017-10-05T09:09:52.877Z,62.69
2017-10-05T09:12:20.370Z,61.74
2017-10-05T09:14:48.162Z,62.26
2017-10-05T09:17:15.685Z,62.13
2017-10-05T09:19:43.209Z,62.12
2017-10-05T09:22:10.717Z,61.46
2017-10-05T09:24:38.172Z,61.18
2017-10-05T09:27:05.664Z,61.11
2017-10-05T09:29:33.128Z,60.93
2017-10-05T09:32:00.727Z,60.79
2017-10-05T09:34:28.211Z,60.42
2017-10-05T09:36:55.745Z,60.86
2017-10-05T09:39:23.299Z,60.74
2017-10-05T09:41:50.792Z,60.72
2017-10-05T09:44:18.276Z,60.31
2017-10-05T09:46:45.751Z,59.80
2017-10-05T09:49:13.261Z,59.49
2017-10-05T09:51:40.756Z,58.77
2017-10-05T09:54:08.241Z,58.38
2017-10-05T09:56:35.749Z,58.18
2017-10-05T09:59:03.230Z,57.72
2017-10-05T10:01:30.722Z,57.18
2017-10-05T10:03:58.283Z,56.71
2017-10-05T10:06:25.810Z,56.55
2017-10-05T10:08:54.368Z,56.43
2017-10-05T10:11:21.861Z,55.90
2017-10-05T10:13:49.346Z,55.42
2017-10-05T10:16:16.798Z,55.64
2017-10-05T10:18:44.313Z,55.12
2017-10-05T10:21:11.785Z,55.39
2017-10-05T10:23:39.277Z,55.77
2017-10-05T10:26:06.787Z,56.36
2017-10-05T10:28:34.356Z,56.69
2017-10-05T10:31:01.841Z,56.81
2017-10-05T10:33:29.334Z,56.63
2017-10-05T10:35:56.861Z,56.80
2017-10-05T10:38:24.339Z,57.07
2017-10-05T10:40:51.817Z,57.30
2017-10-05T10:43:19.363Z,57.27
2017-10-05T10:45:46.871Z,57.50
2017-10-05T10:48:14.379Z,62.17
2017-10-05T10:50:41.824Z,61.38
2017-10-05T10:53:09.301Z,63.07
2017-10-05T10:55:36.776Z,62.53
2017-10-05T10:58:04.272Z,62.59
2017-10-05T11:00:31.740Z,63.32
2017-10-05T11:02:59.561Z,64.34
2017-10-05T11:05:27.051Z,63.48
2017-10-05T11:07:54.537Z,64.85
2017-10-05T11:10:22.055Z,64.92
2017-10-05T11:12:49.513Z,64.93
2017-10-05T11:15:17.096Z,65.08
2017-10-05T11:17:44.568Z,65.37
2017-10-05T11:20:12.054Z,67.24
2017-10-05T11:22:39.556Z,67.73
2017-10-05T11:25:07.045Z,68.42
2017-10-05T11:27:35.328Z,68.80
2017-10-05T11:30:02.975Z,68.97
2017-10-05T11:32:30.453Z,69.39
2017-10-05T11:34:57.981Z,69.24
2017-10-05T11:37:25.461Z,69.46
2017-10-05T11:39:52.969Z,69.77
2017-10-05T11:42:20.463Z,69.63
2017-10-05T11:44:47.972Z,70.11
2017-10-05T11:47:15.484Z,70.36
2017-10-05T11:49:42.962Z,70.05
2017-10-05T11:52:10.508Z,70.48
2017-10-05T11:54:37.990Z,70.65
2017-10-05T11:57:05.501Z,70.13
2017-10-05T11:59:32.989Z,70.13
2017-10-05T12:02:00.464Z,70.05
2017-10-05T12:04:27.977Z,70.37
2017-10-05T12:06:55.464Z,70.30
2017-10-05T12:09:22.958Z,70.35
2017-10-05T12:11:50.430Z,70.22
2017-10-05T12:14:17.956Z,70.97
2017-10-05T12:16:45.415Z,71.75
2017-10-05T12:19:13.015Z,72.29
2017-10-05T12:21:40.469Z,72.69
2017-10-05T12:24:07.935Z,73.12
2017-10-05T12:26:35.411Z,73.87
2017-10-05T12:29:02.871Z,74.77
2017-10-05T12:31:30.409Z,75.80
2017-10-05T12:33:57.856Z,76.66
2017-10-05T12:36:25.329Z,77.60
2017-10-05T12:38:52.840Z,77.48
2017-10-05T12:41:20.289Z,77.67
2017-10-05T12:43:47.785Z,78.04
2017-10-05T12:46:15.576Z,78.29
2017-10-05T12:48:43.091Z,78.53
2017-10-05T12:51:10.574Z,78.85
2017-10-05T12:53:38.055Z,79.43
2017-10-05T12:56:05.545Z,79.65
2017-10-05T12:58:33.037Z,80.29
2017-10-05T13:01:00.557Z,80.58
2017-10-05T13:03:28.025Z,81.03
2017-10-05T13:05:55.532Z,81.78
2017-10-05T13:08:23.006Z,81.36
2017-10-05T13:10:50.588Z,81.81
2017-10-05T13:13:18.088Z,82.06
2017-10-05T13:15:45.547Z,82.14
2017-10-05T13:18:13.036Z,82.25
2017-10-05T13:20:40.521Z,82.51
2017-10-05T13:23:08.032Z,82.64
2017-10-05T13:25:35.492Z,82.60
2017-10-05T13:28:03.069Z,82.44
2017-10-05T13:30:30.552Z,82.50
2017-10-05T13:32:58.025Z,82.39
2017-10-05T13:35:25.591Z,82.67
2017-10-05T13:37:53.076Z,82.68
2017-10-05T13:40:20.549Z,82.75
2017-10-05T13:42:48.006Z,82.69
2017-10-05T13:45:15.496Z,83.02
2017-10-05T13:47:42.989Z,83.02
2017-10-05T13:50:10.525Z,82.80
2017-10-05T13:52:38.014Z,83.00
2017-10-05T13:55:05.478Z,83.13
2017-10-05T13:57:32.999Z,83.31
2017-10-05T14:00:00.495Z,83.60
2017-10-05T14:02:29.283Z,83.72
2017-10-05T14:04:56.837Z,83.79
2017-10-05T14:07:24.349Z,83.71
2017-10-05T14:09:51.847Z,83.95
2017-10-05T14:12:19.298Z,84.28
2017-10-05T14:14:46.793Z,85.12
2017-10-05T14:17:14.304Z,85.29
2017-10-05T14:19:41.832Z,85.59
2017-10-05T14:22:09.294Z,85.89
2017-10-05T14:24:36.792Z,86.12
2017-10-05T14:27:04.295Z,85.98
2017-10-05T14:29:31.825Z,86.00
2017-10-05T14:31:59.342Z,86.14
2017-10-05T14:34:26.805Z,86.51
2017-10-05T14:36:54.354Z,86.54
2017-10-05T14:39:21.848Z,86.68
2017-10-05T14:41:49.489Z,87.14
2017-10-05T14:44:16.969Z,87.13
2017-10-05T14:46:44.464Z,87.00
2017-10-05T14:49:11.925Z,87.07
2017-10-05T14:51:39.714Z,87.07
2017-10-05T14:54:07.212Z,87.24
2017-10-05T14:56:34.709Z,87.23
2017-10-05T14:59:02.193Z,87.13
2017-10-05T15:01:29.673Z,87.33
2017-10-05T15:03:57.157Z,87.09
2017-10-05T15:06:24.629Z,87.03
2017-10-05T15:08:52.941Z,87.39
2017-10-05T15:11:20.394Z,87.37
2017-10-05T15:13:48.015Z,87.52
2017-10-05T15:16:15.473Z,87.60
2017-10-05T15:18:42.958Z,87.60
2017-10-05T15:21:11.699Z,87.26
2017-10-05T15:23:39.279Z,87.34
2017-10-05T15:26:06.828Z,87.65
2017-10-05T15:28:34.306Z,87.58
2017-10-05T15:31:01.902Z,88.15
2017-10-05T15:33:29.414Z,88.23
2017-10-05T15:35:56.866Z,87.56
2017-10-05T15:38:24.349Z,86.08
2017-10-05T15:40:51.810Z,85.30
2017-10-05T15:43:19.309Z,85.35
2017-10-05T15:45:46.775Z,84.97
2017-10-05T15:48:14.337Z,84.69
2017-10-05T15:50:41.952Z,84.92
2017-10-05T15:53:09.433Z,84.33
2017-10-05T15:55:36.881Z,83.61
2017-10-05T15:58:04.405Z,83.88
2017-10-05T16:00:31.887Z,84.29
2017-10-05T16:02:59.410Z,82.92
2017-10-05T16:05:26.906Z,82.85
2017-10-05T16:07:54.380Z,81.40
2017-10-05T16:10:21.893Z,80.76
2017-10-05T16:12:49.385Z,80.18
2017-10-05T16:15:16.888Z,80.81
2017-10-05T16:17:44.344Z,81.03
2017-10-05T16:20:11.845Z,81.41
2017-10-05T16:22:39.345Z,81.72
2017-10-05T16:25:06.843Z,81.46
2017-10-05T16:27:34.366Z,80.83
2017-10-05T16:30:01.832Z,80.94
2017-10-05T16:32:29.337Z,81.03
2017-10-05T16:34:56.790Z,81.00
2017-10-05T16:37:24.291Z,80.94
2017-10-05T16:39:51.774Z,80.60
2017-10-05T16:42:19.273Z,80.78
2017-10-05T16:44:46.728Z,80.74
2017-10-05T16:47:14.353Z,81.12
2017-10-05T16:49:41.851Z,80.82
2017-10-05T16:52:09.352Z,80.75
2017-10-05T16:54:36.841Z,80.26
2017-10-05T16:57:04.290Z,80.47
2017-10-05T16:59:31.779Z,80.29
2017-10-05T17:01:59.269Z,80.07
2017-10-05T17:04:26.789Z,80.29
2017-10-05T17:06:54.236Z,79.94
2017-10-05T17:09:21.746Z,80.35
2017-10-05T17:11:49.245Z,80.16
2017-10-05T17:14:16.745Z,80.34
2017-10-05T17:16:44.248Z,80.35
2017-10-05T17:19:11.713Z,79.71
2017-10-05T17:21:39.200Z,79.43
2017-10-05T17:24:06.854Z,79.28
2017-10-05T17:26:34.331Z,79.18
2017-10-05T17:29:01.805Z,78.86
2017-10-05T17:31:29.253Z,78.72
2017-10-05T17:33:56.743Z,78.67
2017-10-05T17:36:24.202Z,78.88
2017-10-05T17:38:51.687Z,78.45
2017-10-05T17:41:19.145Z,78.44
2017-10-05T17:43:46.630Z,78.02
2017-10-05T17:46:14.075Z,78.21
2017-10-05T17:48:42.514Z,77.96
2017-10-05T17:51:10.063Z,78.22
2017-10-05T17:53:37.527Z,78.06
2017-10-05T17:56:05.029Z,77.76
2017-10-05T17:58:32.506Z,78.04
2017-10-05T18:01:00.068Z,78.26
2017-10-05T18:03:27.525Z,78.80
2017-10-05T18:05:55.769Z,79.39
2017-10-05T18:08:23.274Z,79.58
2017-10-05T18:10:50.743Z,79.57
2017-10-05T18:13:18.249Z,79.60
2017-10-05T18:15:45.763Z,79.11
2017-10-05T18:18:13.216Z,79.80
2017-10-05T18:20:40.700Z,80.19
2017-10-05T18:23:08.169Z,79.86
2017-10-05T18:25:35.690Z,80.23
2017-10-05T18:28:03.165Z,80.32
2017-10-05T18:30:30.629Z,80.40
2017-10-05T18:32:58.128Z,80.75
2017-10-05T18:35:25.645Z,81.91
2017-10-05T18:37:53.134Z,82.01
2017-10-05T18:40:20.595Z,82.04
2017-10-05T18:42:48.094Z,82.55
2017-10-05T18:45:15.579Z,82.48
2017-10-05T18:47:43.061Z,82.55
2017-10-05T18:50:10.571Z,82.52
2017-10-05T18:52:38.089Z,82.62
2017-10-05T18:55:05.562Z,82.51
2017-10-05T18:57:33.068Z,82.79
2017-10-05T19:00:00.551Z,83.07
2017-10-05T19:02:28.081Z,83.02
2017-10-05T19:04:55.544Z,83.04
2017-10-05T19:07:23.150Z,82.73
2017-10-05T19:09:50.602Z,82.35
2017-10-05T19:12:18.061Z,81.66
2017-10-05T19:14:45.547Z,81.42
2017-10-05T19:17:13.722Z,81.37
2017-10-05T19:19:41.209Z,81.18
2017-10-05T19:22:08.684Z,80.95
2017-10-05T19:24:36.194Z,80.57
2017-10-05T19:27:03.686Z,80.75
2017-10-05T19:29:31.139Z,80.47
2017-10-05T19:31:58.647Z,80.34
2017-10-05T19:34:26.269Z,80.39
2017-10-05T19:36:53.766Z,80.32
2017-10-05T19:39:21.227Z,80.05
2017-10-05T19:41:48.754Z,79.67
2017-10-05T19:44:16.237Z,79.94
2017-10-05T19:46:44.499Z,79.85
2017-10-05T19:49:12.083Z,79.86
2017-10-05T19:51:39.624Z,79.82
2017-10-05T19:54:07.133Z,80.02
2017-10-05T19:56:34.634Z,80.06
2017-10-05T19:59:02.121Z,80.17
2017-10-05T20:01:29.597Z,80.16
2017-10-05T20:03:57.116Z,80.17
2017-10-05T20:06:24.605Z,80.34
2017-10-05T20:08:52.127Z,80.22
2017-10-05T20:11:19.641Z,80.03
2017-10-05T20:14:06.908Z,80.06
2017-10-05T20:16:36.736Z,80.15
2017-10-05T20:19:11.681Z,80.03
2017-10-05T20:21:51.824Z,79.56
2017-10-05T20:24:25.053Z,79.57
2017-10-05T20:30:03.957Z,79.69
2017-10-05T20:32:42.422Z,79.82
2017-10-05T20:35:10.350Z,79.86
2017-10-05T20:37:37.823Z,79.99
2017-10-05T20:40:05.274Z,80.29
2017-10-05T20:42:32.814Z,80.79
2017-10-05T20:45:00.316Z,80.87
2017-10-05T20:47:27.828Z,80.85
2017-10-05T20:49:55.684Z,80.75
2017-10-05T20:52:23.189Z,80.46
2017-10-05T20:54:50.924Z,80.10
2017-10-05T20:57:19.222Z,79.77
2017-10-05T20:59:46.706Z,79.22
2017-10-05T21:02:14.199Z,79.13
2017-10-05T21:04:42.687Z,78.88
2017-10-05T21:07:10.177Z,78.81
2017-10-05T21:09:38.215Z,78.71
2017-10-05T21:12:05.693Z,78.37
2017-10-05T21:14:34.014Z,78.06
2017-10-05T21:17:01.464Z,78.00
2017-10-05T21:19:28.965Z,77.98
2017-10-05T21:21:56.473Z,78.32
2017-10-05T21:24:23.962Z,78.12
2017-10-05T21:26:51.434Z,78.01
2017-10-05T21:29:19.138Z,78.09
2017-10-05T21:31:46.598Z,77.61
2017-10-05T21:34:14.101Z,77.63
2017-10-05T21:36:41.587Z,77.18
2017-10-05T21:39:09.061Z,77.49
2017-10-05T21:41:36.553Z,77.95
2017-10-05T21:44:04.023Z,77.67
2017-10-05T21:46:31.501Z,77.80
2017-10-05T21:48:58.969Z,77.67
2017-10-05T21:51:26.662Z,77.06
2017-10-05T21:53:54.116Z,76.87
2017-10-05T21:56:21.573Z,76.41
2017-10-05T21:58:49.078Z,76.23
2017-10-05T22:01:16.548Z,76.08
2017-10-05T22:03:44.037Z,76.38
2017-10-05T22:06:11.494Z,76.65
2017-10-05T22:08:44.992Z,77.17
2017-10-05T22:11:13.062Z,77.14
2017-10-05T22:13:40.555Z,77.04
2017-10-05T22:16:08.032Z,76.90
2017-10-05T22:18:35.521Z,76.62
2017-10-05T22:21:03.006Z,76.73
2017-10-05T22:23:30.464Z,76.65
2017-10-05T22:25:57.963Z,76.25
2017-10-05T22:28:26.131Z,76.45
2017-10-05T22:30:53.608Z,76.60
2017-10-05T22:33:21.063Z,76.87
2017-10-05T22:35:48.552Z,76.92
2017-10-05T22:38:16.001Z,77.07
2017-10-05T22:40:43.481Z,76.95
2017-10-05T22:43:10.959Z,77.04
2017-10-05T22:45:38.891Z,78.09
2017-10-05T22:48:06.360Z,79.50
2017-10-05T22:50:33.815Z,80.06
2017-10-05T22:53:01.330Z,80.42
2017-10-05T22:55:28.804Z,80.57
2017-10-05T22:57:56.297Z,81.17
2017-10-05T23:00:23.756Z,81.24
2017-10-05T23:02:51.233Z,81.45
2017-10-05T23:05:18.703Z,81.16
2017-10-05T23:07:46.190Z,80.04
2017-10-05T23:10:13.644Z,79.62
2017-10-05T23:12:41.146Z,78.98
2017-10-05T23:15:08.636Z,78.74
2017-10-05T23:17:36.122Z,78.46
2017-10-05T23:20:03.659Z,78.58
2017-10-05T23:22:31.149Z,78.77
2017-10-05T23:24:58.651Z,79.11
2017-10-05T23:27:26.119Z,79.55
2017-10-05T23:29:53.612Z,80.09
2017-10-05T23:32:21.065Z,80.15
2017-10-05T23:34:48.540Z,80.41
2017-10-05T23:37:16.001Z,80.41
2017-10-05T23:39:43.510Z,80.27
2017-10-05T23:42:10.978Z,79.90
2017-10-05T23:44:38.449Z,79.77
2017-10-05T23:47:05.942Z,79.54
2017-10-05T23:49:33.426Z,78.58
2017-10-05T23:52:00.920Z,78.21
2017-10-05T23:54:28.419Z,77.92
2017-10-05T23:56:55.930Z,77.69
2017-10-05T23:59:23.396Z,78.07
